Time,TemperatureF,DewpointF,PressureIn,WindDirection,WindDirectionDegrees,WindSpeedMPH,WindSpeedGustMPH,Humidity,HourlyPrecipIn,Conditions,Clouds,dailyrainin,SoftwareType,DateUTC
2013-05-20 00:14:00,64.5,63.0,29.52,NNW,342,2.0,3.0,96,0.02,,,0.76,weatherlink.com 1.10,2013-05-20 05:14:00,
2013-05-20 00:29:00,64.3,63.0,29.53,NNW,345,0.0,3.0,96,0.02,,,0.00,weatherlink.com 1.10,2013-05-20 05:29:00,
2013-05-20 00:44:00,64.1,63.0,29.53,NW,312,0.0,3.0,96,0.02,,,0.00,weatherlink.com 1.10,2013-05-20 05:44:00,
2013-05-20 00:59:00,64.0,63.0,29.54,NW,312,0.0,1.0,96,0.01,,,0.00,weatherlink.com 1.10,2013-05-20 05:59:00,
2013-05-20 01:14:00,63.8,63.0,29.53,NW,312,0.0,1.0,96,0.00,,,0.00,weatherlink.com 1.10,2013-05-20 06:14:00,
2013-05-20 01:29:00,63.6,63.0,29.53,NW,312,0.0,0.0,97,0.00,,,0.00,weatherlink.com 1.10,2013-05-20 06:29:00,
2013-05-20 01:44:00,63.6,63.0,29.52,NW,306,1.0,2.0,97,0.01,,,0.01,weatherlink.com 1.10,2013-05-20 06:44:00,
2013-05-20 01:59:00,63.5,63.0,29.51,NNE,17,0.0,1.0,97,0.02,,,0.02,weatherlink.com 1.10,2013-05-20 06:59:00,
2013-05-20 02:14:00,63.4,63.0,29.51,NE,51,0.0,2.0,97,0.02,,,0.02,weatherlink.com 1.10,2013-05-20 07:14:00,
2013-05-20 02:29:00,63.2,62.0,29.52,ENE,57,0.0,2.0,97,0.02,,,0.02,weatherlink.com 1.10,2013-05-20 07:29:00,
2013-05-20 02:44:00,63.2,62.0,29.52,ENE,60,0.0,6.0,97,0.01,,,0.02,weatherlink.com 1.10,2013-05-20 07:44:00,
2013-05-20 02:59:00,63.1,62.0,29.52,ENE,65,1.0,4.0,97,0.00,,,0.02,weatherlink.com 1.10,2013-05-20 07:59:00,
2013-05-20 03:14:00,62.9,62.0,29.50,NE,53,1.0,4.0,97,0.01,,,0.03,weatherlink.com 1.10,2013-05-20 08:14:00,
2013-05-20 03:29:00,62.8,62.0,29.49,NE,44,0.0,2.0,97,0.01,,,0.03,weatherlink.com 1.10,2013-05-20 08:29:00,
2013-05-20 03:44:00,62.7,62.0,29.49,NE,53,0.0,2.0,97,0.01,,,0.03,weatherlink.com 1.10,2013-05-20 08:44:00,
2013-05-20 03:59:00,62.7,62.0,29.48,North,360,0.0,1.0,97,0.01,,,0.03,weatherlink.com 1.10,2013-05-20 08:59:00,
2013-05-20 04:14:00,62.6,62.0,29.48,North,360,0.0,1.0,97,0.00,,,0.03,weatherlink.com 1.10,2013-05-20 09:14:00,
2013-05-20 04:29:00,62.6,62.0,29.49,ENE,63,0.0,2.0,97,0.00,,,0.03,weatherlink.com 1.10,2013-05-20 09:29:00,
2013-05-20 04:44:00,62.5,62.0,29.47,North,349,0.0,2.0,97,0.00,,,0.03,weatherlink.com 1.10,2013-05-20 09:44:00,
2013-05-20 04:59:00,62.5,62.0,29.46,NW,306,0.0,3.0,97,0.00,,,0.03,weatherlink.com 1.10,2013-05-20 09:59:00,
2013-05-20 05:14:00,62.4,62.0,29.47,NW,315,0.0,0.0,97,0.00,,,0.03,weatherlink.com 1.10,2013-05-20 10:14:00,
2013-05-20 05:29:00,62.5,62.0,29.48,NE,49,2.0,2.0,97,0.00,,,0.03,weatherlink.com 1.10,2013-05-20 10:29:00,
2013-05-20 05:44:00,62.4,62.0,29.49,NE,55,0.0,2.0,97,0.00,,,0.03,weatherlink.com 1.10,2013-05-20 10:44:00,
2013-05-20 05:59:00,62.5,62.0,29.50,NE,46,0.0,2.0,97,0.00,,,0.03,weatherlink.com 1.10,2013-05-20 10:59:00,
2013-05-20 06:14:00,62.7,62.0,29.50,NNE,17,0.0,4.0,97,0.00,,,0.03,weatherlink.com 1.10,2013-05-20 11:14:00,
2013-05-20 06:29:00,62.6,62.0,29.50,ENE,61,0.0,3.0,97,0.00,,,0.03,weatherlink.com 1.10,2013-05-20 11:29:00,
2013-05-20 06:44:00,62.7,62.0,29.50,NE,46,0.0,3.0,97,0.00,,,0.03,weatherlink.com 1.10,2013-05-20 11:44:00,
2013-05-20 06:59:00,62.7,62.0,29.50,NNW,346,2.0,4.0,97,0.00,,,0.03,weatherlink.com 1.10,2013-05-20 11:59:00,
2013-05-20 07:14:00,62.5,61.0,29.51,NE,54,1.0,7.0,96,0.00,,,0.03,weatherlink.com 1.10,2013-05-20 12:14:00,
2013-05-20 07:29:00,62.5,61.0,29.51,ENE,78,1.0,4.0,96,0.00,,,0.03,weatherlink.com 1.10,2013-05-20 12:29:00,
2013-05-20 07:44:00,62.5,61.0,29.51,NNE,17,1.0,5.0,96,0.00,,,0.03,weatherlink.com 1.10,2013-05-20 12:44:00,
2013-05-20 07:59:00,63.0,62.0,29.51,East,87,0.0,6.0,96,0.00,,,0.03,weatherlink.com 1.10,2013-05-20 12:59:00,
2013-05-20 08:14:00,64.1,62.0,29.51,ESE,104,2.0,5.0,94,0.00,,,0.03,weatherlink.com 1.10,2013-05-20 13:14:00,
2013-05-20 08:30:00,65.3,63.0,29.51,North,349,4.0,8.0,91,0.00,,,0.03,weatherlink.com 1.10,2013-05-20 13:30:00,
2013-05-20 08:45:00,66.0,62.0,29.51,ENE,61,2.0,7.0,87,0.00,,,0.03,weatherlink.com 1.10,2013-05-20 13:45:00,
2013-05-20 09:00:00,67.3,62.0,29.51,ENE,59,1.0,4.0,84,0.00,,,0.03,weatherlink.com 1.10,2013-05-20 14:00:00,
2013-05-20 09:15:00,68.1,62.0,29.51,East,90,0.0,10.0,81,0.00,,,0.03,weatherlink.com 1.10,2013-05-20 14:15:00,
2013-05-20 09:30:00,69.3,62.0,29.51,ENE,65,1.0,5.0,78,0.00,,,0.03,weatherlink.com 1.10,2013-05-20 14:30:00,
2013-05-20 09:45:00,70.7,62.0,29.51,East,80,2.0,6.0,74,0.00,,,0.03,weatherlink.com 1.10,2013-05-20 14:45:00,
2013-05-20 10:00:00,70.4,61.0,29.50,NE,55,4.0,6.0,73,0.00,,,0.03,weatherlink.com 1.10,2013-05-20 15:00:00,
2013-05-20 10:15:00,70.7,62.0,29.50,ENE,65,1.0,5.0,73,0.00,,,0.03,weatherlink.com 1.10,2013-05-20 15:15:00,
2013-05-20 10:30:00,71.0,62.0,29.50,NE,47,5.0,7.0,72,0.00,,,0.03,weatherlink.com 1.10,2013-05-20 15:30:00,
2013-05-20 10:45:00,71.0,61.0,29.49,ESE,107,2.0,7.0,71,0.00,,,0.03,weatherlink.com 1.10,2013-05-20 15:45:00,
2013-05-20 11:00:00,70.9,61.0,29.50,ENE,63,2.0,9.0,70,0.00,,,0.03,weatherlink.com 1.10,2013-05-20 16:00:00,
2013-05-20 11:15:00,70.5,61.0,29.50,ENE,76,4.0,7.0,72,0.00,,,0.03,weatherlink.com 1.10,2013-05-20 16:15:00,
2013-05-20 11:30:00,69.5,61.0,29.50,ENE,71,2.0,7.0,74,0.00,,,0.03,weatherlink.com 1.10,2013-05-20 16:30:00,
2013-05-20 11:45:00,68.6,60.0,29.50,NNE,26,1.0,8.0,75,0.00,,,0.03,weatherlink.com 1.10,2013-05-20 16:45:00,
2013-05-20 12:00:00,69.2,61.0,29.50,NE,34,2.0,8.0,76,0.00,,,0.03,weatherlink.com 1.10,2013-05-20 17:00:00,
2013-05-20 12:15:00,70.5,62.0,29.50,ENE,63,2.0,9.0,75,0.00,,,0.03,weatherlink.com 1.10,2013-05-20 17:15:00,
2013-05-20 12:30:00,70.1,61.0,29.50,East,87,1.0,14.0,74,0.00,,,0.03,weatherlink.com 1.10,2013-05-20 17:30:00,
2013-05-20 12:45:00,68.9,61.0,29.50,East,85,1.0,8.0,76,0.00,,,0.03,weatherlink.com 1.10,2013-05-20 17:45:00,
2013-05-20 13:00:00,66.5,62.0,29.51,NE,44,0.0,3.0,84,0.02,,,0.05,weatherlink.com 1.10,2013-05-20 18:00:00,
2013-05-20 13:15:00,65.2,62.0,29.50,East,99,0.0,2.0,89,0.02,,,0.05,weatherlink.com 1.10,2013-05-20 18:15:00,
2013-05-20 13:30:00,65.0,62.0,29.51,ENE,57,1.0,4.0,91,0.02,,,0.05,weatherlink.com 1.10,2013-05-20 18:30:00,
2013-05-20 13:45:00,65.2,62.0,29.51,ENE,57,0.0,4.0,89,0.02,,,0.05,weatherlink.com 1.10,2013-05-20 18:45:00,
2013-05-20 14:00:00,66.1,64.0,29.51,NE,45,1.0,4.0,91,0.00,,,0.05,weatherlink.com 1.10,2013-05-20 19:00:00,
2013-05-20 14:15:00,66.2,63.0,29.51,ENE,65,3.0,5.0,90,0.00,,,0.05,weatherlink.com 1.10,2013-05-20 19:15:00,
2013-05-20 14:30:00,67.1,63.0,29.50,ENE,57,4.0,5.0,86,0.00,,,0.05,weatherlink.com 1.10,2013-05-20 19:30:00,
2013-05-20 14:45:00,67.3,62.0,29.51,NE,55,2.0,7.0,84,0.00,,,0.05,weatherlink.com 1.10,2013-05-20 19:45:00,
2013-05-20 15:00:00,66.3,63.0,29.52,East,97,0.0,4.0,88,0.02,,,0.07,weatherlink.com 1.10,2013-05-20 20:00:00,
2013-05-20 15:15:00,66.8,65.0,29.52,East,83,1.0,4.0,92,0.02,,,0.07,weatherlink.com 1.10,2013-05-20 20:15:00,
2013-05-20 15:30:00,67.7,64.0,29.52,East,79,0.0,3.0,88,0.02,,,0.07,weatherlink.com 1.10,2013-05-20 20:30:00,
2013-05-20 15:45:00,68.5,63.0,29.52,ESE,109,0.0,9.0,83,0.02,,,0.07,weatherlink.com 1.10,2013-05-20 20:45:00,
2013-05-20 16:00:00,68.1,63.0,29.52,East,97,6.0,7.0,83,0.00,,,0.07,weatherlink.com 1.10,2013-05-20 21:00:00,
2013-05-20 16:15:00,70.0,63.0,29.52,ESE,123,3.0,6.0,77,0.00,,,0.07,weatherlink.com 1.10,2013-05-20 21:15:00,
2013-05-20 16:30:00,71.2,61.0,29.53,ENE,63,2.0,7.0,70,0.00,,,0.07,weatherlink.com 1.10,2013-05-20 21:30:00,
2013-05-20 16:45:00,71.9,60.0,29.53,East,98,6.0,8.0,67,0.00,,,0.07,weatherlink.com 1.10,2013-05-20 21:45:00,
2013-05-20 17:00:00,72.5,60.0,29.53,ESE,119,1.0,7.0,66,0.00,,,0.07,weatherlink.com 1.10,2013-05-20 22:00:00,
2013-05-20 17:15:00,71.9,59.0,29.53,ENE,71,2.0,6.0,64,0.00,,,0.07,weatherlink.com 1.10,2013-05-20 22:15:00,
2013-05-20 17:30:00,71.3,59.0,29.53,East,93,0.0,6.0,66,0.00,,,0.07,weatherlink.com 1.10,2013-05-20 22:30:00,
2013-05-20 17:45:00,70.8,60.0,29.54,North,5,1.0,5.0,68,0.00,,,0.07,weatherlink.com 1.10,2013-05-20 22:45:00,
2013-05-20 18:00:00,70.8,59.0,29.54,ESE,121,0.0,9.0,66,0.00,,,0.07,weatherlink.com 1.10,2013-05-20 23:00:00,
2013-05-20 18:15:00,70.6,59.0,29.53,East,87,0.0,5.0,66,0.00,,,0.07,weatherlink.com 1.10,2013-05-20 23:15:00,
2013-05-20 18:30:00,70.2,59.0,29.54,NE,38,4.0,7.0,67,0.00,,,0.07,weatherlink.com 1.10,2013-05-20 23:30:00,
2013-05-20 18:45:00,69.9,59.0,29.54,NE,53,0.0,4.0,68,0.00,,,0.07,weatherlink.com 1.10,2013-05-20 23:45:00,
2013-05-20 19:00:00,69.6,59.0,29.54,ENE,69,0.0,6.0,70,0.00,,,0.07,weatherlink.com 1.10,2013-05-21 00:00:00,
2013-05-20 19:15:00,69.6,60.0,29.54,NE,42,1.0,4.0,71,0.00,,,0.07,weatherlink.com 1.10,2013-05-21 00:15:00,
2013-05-20 19:30:00,69.2,59.0,29.53,NE,56,0.0,3.0,71,0.00,,,0.07,weatherlink.com 1.10,2013-05-21 00:30:00,
2013-05-20 19:45:00,68.8,59.0,29.53,ENE,73,0.0,4.0,71,0.00,,,0.07,weatherlink.com 1.10,2013-05-21 00:45:00,
2013-05-20 20:00:00,68.3,59.0,29.53,ENE,63,0.0,3.0,73,0.00,,,0.07,weatherlink.com 1.10,2013-05-21 01:00:00,
2013-05-20 20:15:00,67.9,59.0,29.53,NE,46,2.0,3.0,74,0.00,,,0.07,weatherlink.com 1.10,2013-05-21 01:15:00,
2013-05-20 20:30:00,67.5,60.0,29.53,NE,40,0.0,2.0,76,0.00,,,0.07,weatherlink.com 1.10,2013-05-21 01:30:00,
2013-05-20 20:45:00,67.0,59.0,29.53,North,350,0.0,0.0,76,0.00,,,0.07,weatherlink.com 1.10,2013-05-21 01:45:00,
2013-05-20 21:00:00,66.6,60.0,29.52,NW,321,0.0,1.0,78,0.00,,,0.07,weatherlink.com 1.10,2013-05-21 02:00:00,
2013-05-20 21:15:00,66.5,60.0,29.52,NE,50,0.0,2.0,79,0.00,,,0.07,weatherlink.com 1.10,2013-05-21 02:15:00,
2013-05-20 21:30:00,66.3,60.0,29.52,NNE,33,0.0,2.0,81,0.00,,,0.07,weatherlink.com 1.10,2013-05-21 02:30:00,
2013-05-20 21:45:00,66.5,61.0,29.53,NNE,24,0.0,2.0,81,0.00,,,0.07,weatherlink.com 1.10,2013-05-21 02:45:00,
2013-05-20 22:00:00,66.6,61.0,29.54,NE,50,0.0,2.0,81,0.00,,,0.07,weatherlink.com 1.10,2013-05-21 03:00:00,
2013-05-20 22:15:00,66.0,61.0,29.55,East,99,1.0,2.0,85,0.02,,,0.09,weatherlink.com 1.10,2013-05-21 03:15:00,
2013-05-20 22:30:00,64.8,61.0,29.54,NNW,334,0.0,2.0,88,0.04,,,0.11,weatherlink.com 1.10,2013-05-21 03:30:00,
2013-05-20 22:45:00,63.8,62.0,29.54,East,84,1.0,2.0,92,0.06,,,0.13,weatherlink.com 1.10,2013-05-21 03:45:00,
2013-05-20 23:00:00,61.5,59.0,29.53,WSW,242,0.0,2.0,91,0.16,,,0.23,weatherlink.com 1.10,2013-05-21 04:00:00,
2013-05-20 23:15:00,60.7,59.0,29.51,NW,312,0.0,1.0,93,0.18,,,0.27,weatherlink.com 1.10,2013-05-21 04:15:00,
2013-05-20 23:31:00,59.8,58.0,29.50,NW,315,0.0,4.0,94,0.18,,,0.29,weatherlink.com 1.10,2013-05-21 04:31:00,
2013-05-20 23:46:00,59.4,58.0,29.50,NNW,327,1.0,3.0,94,0.18,,,0.31,weatherlink.com 1.10,2013-05-21 04:46:00,